sensor_id;sensor_type;location;lat;lon;timestamp;P1;durP1;ratioP1;P2;durP2;ratioP2
62616;SDS011;76316;51.190;6.808;2024-02-23T00:01:58;3.05;;;1.70;;
62616;SDS011;76316;51.190;6.808;2024-02-23T00:04:25;2.03;;;1.48;;
62616;SDS011;76316;51.190;6.808;2024-02-23T00:06:50;2.17;;;1.45;;
62616;SDS011;76316;51.190;6.808;2024-02-23T00:09:15;3.40;;;1.38;;
62616;SDS011;76316;51.190;6.808;2024-02-23T00:11:41;2.38;;;1.60;;
62616;SDS011;76316;51.190;6.808;2024-02-23T00:14:09;2.92;;;1.50;;
62616;SDS011;76316;51.190;6.808;2024-02-23T00:16:38;2.63;;;1.50;;
62616;SDS011;76316;51.190;6.808;2024-02-23T00:19:05;2.83;;;1.60;;
62616;SDS011;76316;51.190;6.808;2024-02-23T00:21:32;2.17;;;1.35;;
62616;SDS011;76316;51.190;6.808;2024-02-23T00:23:57;3.30;;;1.77;;
62616;SDS011;76316;51.190;6.808;2024-02-23T00:26:22;3.05;;;1.60;;
62616;SDS011;76316;51.190;6.808;2024-02-23T00:28:48;7.82;;;1.38;;
62616;SDS011;76316;51.190;6.808;2024-02-23T00:31:13;3.08;;;1.73;;
62616;SDS011;76316;51.190;6.808;2024-02-23T00:33:39;3.97;;;1.63;;
62616;SDS011;76316;51.190;6.808;2024-02-23T00:36:07;7.20;;;1.70;;
62616;SDS011;76316;51.190;6.808;2024-02-23T00:38:32;1.60;;;1.23;;
62616;SDS011;76316;51.190;6.808;2024-02-23T00:40:58;2.20;;;1.30;;
62616;SDS011;76316;51.190;6.808;2024-02-23T00:43:23;2.10;;;1.40;;
62616;SDS011;76316;51.190;6.808;2024-02-23T00:45:48;2.53;;;1.30;;
62616;SDS011;76316;51.190;6.808;2024-02-23T00:48:14;2.20;;;1.40;;
62616;SDS011;76316;51.190;6.808;2024-02-23T00:50:39;2.45;;;1.30;;
62616;SDS011;76316;51.190;6.808;2024-02-23T00:53:05;2.65;;;1.40;;
62616;SDS011;76316;51.190;6.808;2024-02-23T00:55:30;4.20;;;1.50;;
62616;SDS011;76316;51.190;6.808;2024-02-23T00:57:56;1.95;;;1.17;;
62616;SDS011;76316;51.190;6.808;2024-02-23T01:00:21;4.55;;;1.58;;
62616;SDS011;76316;51.190;6.808;2024-02-23T01:02:47;4.97;;;1.42;;
62616;SDS011;76316;51.190;6.808;2024-02-23T01:05:12;2.10;;;1.20;;
62616;SDS011;76316;51.190;6.808;2024-02-23T01:07:38;3.40;;;1.70;;
62616;SDS011;76316;51.190;6.808;2024-02-23T01:10:03;3.00;;;1.20;;
62616;SDS011;76316;51.190;6.808;2024-02-23T01:12:29;2.63;;;1.30;;
62616;SDS011;76316;51.190;6.808;2024-02-23T01:14:55;2.58;;;1.38;;
62616;SDS011;76316;51.190;6.808;2024-02-23T01:17:20;1.98;;;1.15;;
62616;SDS011;76316;51.190;6.808;2024-02-23T01:19:46;1.77;;;1.15;;
62616;SDS011;76316;51.190;6.808;2024-02-23T01:22:11;4.07;;;1.40;;
62616;SDS011;76316;51.190;6.808;2024-02-23T01:24:37;3.67;;;1.45;;
62616;SDS011;76316;51.190;6.808;2024-02-23T01:27:02;1.58;;;1.27;;
62616;SDS011;76316;51.190;6.808;2024-02-23T01:29:28;4.22;;;1.20;;
62616;SDS011;76316;51.190;6.808;2024-02-23T01:31:53;2.75;;;1.48;;
62616;SDS011;76316;51.190;6.808;2024-02-23T01:34:19;4.32;;;1.42;;
62616;SDS011;76316;51.190;6.808;2024-02-23T01:36:46;2.40;;;1.30;;
62616;SDS011;76316;51.190;6.808;2024-02-23T01:39:11;2.50;;;1.45;;
62616;SDS011;76316;51.190;6.808;2024-02-23T01:41:37;3.53;;;1.15;;
62616;SDS011;76316;51.190;6.808;2024-02-23T01:44:02;2.05;;;1.42;;
62616;SDS011;76316;51.190;6.808;2024-02-23T01:46:28;1.83;;;1.20;;
62616;SDS011;76316;51.190;6.808;2024-02-23T01:48:54;4.22;;;1.15;;
62616;SDS011;76316;51.190;6.808;2024-02-23T01:51:20;2.60;;;1.33;;
62616;SDS011;76316;51.190;6.808;2024-02-23T01:53:46;2.28;;;1.17;;
62616;SDS011;76316;51.190;6.808;2024-02-23T01:56:11;2.15;;;1.25;;
62616;SDS011;76316;51.190;6.808;2024-02-23T01:58:43;1.65;;;1.10;;
62616;SDS011;76316;51.190;6.808;2024-02-23T02:01:10;2.83;;;1.17;;
62616;SDS011;76316;51.190;6.808;2024-02-23T02:03:37;1.63;;;1.17;;
62616;SDS011;76316;51.190;6.808;2024-02-23T02:06:07;3.05;;;1.27;;
62616;SDS011;76316;51.190;6.808;2024-02-23T02:08:35;1.75;;;1.10;;
62616;SDS011;76316;51.190;6.808;2024-02-23T02:11:01;3.10;;;1.10;;
62616;SDS011;76316;51.190;6.808;2024-02-23T02:13:29;1.40;;;1.00;;
62616;SDS011;76316;51.190;6.808;2024-02-23T02:16:00;3.92;;;1.13;;
62616;SDS011;76316;51.190;6.808;2024-02-23T02:18:29;2.25;;;1.25;;
62616;SDS011;76316;51.190;6.808;2024-02-23T02:20:55;4.03;;;1.00;;
62616;SDS011;76316;51.190;6.808;2024-02-23T02:23:22;1.10;;;0.88;;
62616;SDS011;76316;51.190;6.808;2024-02-23T02:25:58;2.30;;;1.20;;
62616;SDS011;76316;51.190;6.808;2024-02-23T02:28:24;2.35;;;1.38;;
62616;SDS011;76316;51.190;6.808;2024-02-23T02:30:51;2.17;;;1.13;;
62616;SDS011;76316;51.190;6.808;2024-02-23T02:33:20;1.77;;;1.00;;
62616;SDS011;76316;51.190;6.808;2024-02-23T02:35:47;2.80;;;1.20;;
62616;SDS011;76316;51.190;6.808;2024-02-23T02:38:13;1.73;;;1.15;;
62616;SDS011;76316;51.190;6.808;2024-02-23T02:40:39;2.00;;;1.00;;
62616;SDS011;76316;51.190;6.808;2024-02-23T02:43:04;2.50;;;1.20;;
62616;SDS011;76316;51.190;6.808;2024-02-23T02:45:30;2.47;;;1.00;;
62616;SDS011;76316;51.190;6.808;2024-02-23T02:47:56;1.65;;;0.95;;
62616;SDS011;76316;51.190;6.808;2024-02-23T02:50:22;1.95;;;1.02;;
62616;SDS011;76316;51.190;6.808;2024-02-23T02:52:47;4.82;;;1.50;;
62616;SDS011;76316;51.190;6.808;2024-02-23T02:55:13;1.83;;;1.23;;
62616;SDS011;76316;51.190;6.808;2024-02-23T02:57:38;1.95;;;1.15;;
62616;SDS011;76316;51.190;6.808;2024-02-23T03:00:04;2.22;;;1.13;;
62616;SDS011;76316;51.190;6.808;2024-02-23T03:02:31;1.63;;;1.02;;
62616;SDS011;76316;51.190;6.808;2024-02-23T03:04:57;1.27;;;0.90;;
62616;SDS011;76316;51.190;6.808;2024-02-23T03:07:22;2.25;;;1.15;;
62616;SDS011;76316;51.190;6.808;2024-02-23T03:09:48;4.50;;;1.10;;
62616;SDS011;76316;51.190;6.808;2024-02-23T03:12:15;1.27;;;1.17;;
62616;SDS011;76316;51.190;6.808;2024-02-23T03:14:42;1.63;;;1.00;;
62616;SDS011;76316;51.190;6.808;2024-02-23T03:17:08;1.38;;;1.00;;
62616;SDS011;76316;51.190;6.808;2024-02-23T03:19:37;1.63;;;0.90;;
62616;SDS011;76316;51.190;6.808;2024-02-23T03:22:03;1.13;;;0.90;;
62616;SDS011;76316;51.190;6.808;2024-02-23T03:24:29;2.33;;;1.20;;
62616;SDS011;76316;51.190;6.808;2024-02-23T03:26:55;3.00;;;1.10;;
62616;SDS011;76316;51.190;6.808;2024-02-23T03:29:21;1.55;;;1.00;;
62616;SDS011;76316;51.190;6.808;2024-02-23T03:31:49;3.03;;;1.10;;
62616;SDS011;76316;51.190;6.808;2024-02-23T03:34:15;2.15;;;1.02;;
62616;SDS011;76316;51.190;6.808;2024-02-23T03:36:40;0.93;;;0.85;;
62616;SDS011;76316;51.190;6.808;2024-02-23T03:39:06;1.80;;;1.10;;
62616;SDS011;76316;51.190;6.808;2024-02-23T03:41:31;2.88;;;1.00;;
62616;SDS011;76316;51.190;6.808;2024-02-23T03:43:57;1.98;;;0.77;;
62616;SDS011;76316;51.190;6.808;2024-02-23T03:46:23;1.98;;;0.98;;
62616;SDS011;76316;51.190;6.808;2024-02-23T03:48:49;1.98;;;0.80;;
62616;SDS011;76316;51.190;6.808;2024-02-23T03:51:15;2.70;;;1.10;;
62616;SDS011;76316;51.190;6.808;2024-02-23T03:53:41;2.50;;;1.15;;
62616;SDS011;76316;51.190;6.808;2024-02-23T03:56:06;1.75;;;1.00;;
62616;SDS011;76316;51.190;6.808;2024-02-23T03:58:33;2.03;;;0.90;;
62616;SDS011;76316;51.190;6.808;2024-02-23T04:00:58;1.55;;;0.90;;
62616;SDS011;76316;51.190;6.808;2024-02-23T04:03:24;1.00;;;0.90;;
62616;SDS011;76316;51.190;6.808;2024-02-23T04:05:49;2.08;;;0.90;;
62616;SDS011;76316;51.190;6.808;2024-02-23T04:08:14;1.42;;;0.90;;
62616;SDS011;76316;51.190;6.808;2024-02-23T04:10:40;1.10;;;0.88;;
62616;SDS011;76316;51.190;6.808;2024-02-23T04:13:05;3.20;;;1.10;;
62616;SDS011;76316;51.190;6.808;2024-02-23T04:15:31;2.15;;;0.93;;
62616;SDS011;76316;51.190;6.808;2024-02-23T04:17:56;1.65;;;1.00;;
62616;SDS011;76316;51.190;6.808;2024-02-23T04:20:22;2.33;;;0.73;;
62616;SDS011;76316;51.190;6.808;2024-02-23T04:22:47;1.73;;;0.95;;
62616;SDS011;76316;51.190;6.808;2024-02-23T04:25:13;4.20;;;0.90;;
62616;SDS011;76316;51.190;6.808;2024-02-23T04:27:38;1.83;;;1.00;;
62616;SDS011;76316;51.190;6.808;2024-02-23T04:30:04;1.98;;;1.05;;
62616;SDS011;76316;51.190;6.808;2024-02-23T04:32:31;1.88;;;1.00;;
62616;SDS011;76316;51.190;6.808;2024-02-23T04:34:56;1.23;;;0.88;;
62616;SDS011;76316;51.190;6.808;2024-02-23T04:37:21;4.10;;;0.93;;
62616;SDS011;76316;51.190;6.808;2024-02-23T04:39:47;1.45;;;0.77;;
62616;SDS011;76316;51.190;6.808;2024-02-23T04:42:12;0.88;;;0.80;;
62616;SDS011;76316;51.190;6.808;2024-02-23T04:44:38;3.15;;;1.05;;
62616;SDS011;76316;51.190;6.808;2024-02-23T04:47:05;1.13;;;0.70;;
62616;SDS011;76316;51.190;6.808;2024-02-23T04:49:31;1.15;;;0.77;;
62616;SDS011;76316;51.190;6.808;2024-02-23T04:51:56;0.80;;;0.80;;
62616;SDS011;76316;51.190;6.808;2024-02-23T04:54:22;2.17;;;0.80;;
62616;SDS011;76316;51.190;6.808;2024-02-23T04:56:47;2.58;;;0.90;;
62616;SDS011;76316;51.190;6.808;2024-02-23T04:59:13;3.95;;;1.38;;
62616;SDS011;76316;51.190;6.808;2024-02-23T05:01:38;1.08;;;0.90;;
62616;SDS011;76316;51.190;6.808;2024-02-23T05:04:04;2.03;;;0.80;;
62616;SDS011;76316;51.190;6.808;2024-02-23T05:06:31;1.73;;;0.80;;
62616;SDS011;76316;51.190;6.808;2024-02-23T05:08:56;1.33;;;0.80;;
62616;SDS011;76316;51.190;6.808;2024-02-23T05:11:22;3.30;;;0.82;;
62616;SDS011;76316;51.190;6.808;2024-02-23T05:13:47;1.40;;;0.95;;
62616;SDS011;76316;51.190;6.808;2024-02-23T05:16:16;1.95;;;1.00;;
62616;SDS011;76316;51.190;6.808;2024-02-23T05:18:41;1.88;;;1.20;;
62616;SDS011;76316;51.190;6.808;2024-02-23T05:21:08;1.52;;;0.90;;
62616;SDS011;76316;51.190;6.808;2024-02-23T05:23:34;1.50;;;1.00;;
62616;SDS011;76316;51.190;6.808;2024-02-23T05:26:00;2.00;;;0.95;;
62616;SDS011;76316;51.190;6.808;2024-02-23T05:28:26;2.80;;;0.90;;
62616;SDS011;76316;51.190;6.808;2024-02-23T05:30:52;1.65;;;0.80;;
62616;SDS011;76316;51.190;6.808;2024-02-23T05:33:19;1.17;;;0.80;;
62616;SDS011;76316;51.190;6.808;2024-02-23T05:35:46;1.02;;;0.68;;
62616;SDS011;76316;51.190;6.808;2024-02-23T05:38:14;1.42;;;0.70;;
62616;SDS011;76316;51.190;6.808;2024-02-23T05:40:40;1.85;;;0.90;;
62616;SDS011;76316;51.190;6.808;2024-02-23T05:43:05;1.25;;;0.70;;
62616;SDS011;76316;51.190;6.808;2024-02-23T05:45:31;1.60;;;0.80;;
62616;SDS011;76316;51.190;6.808;2024-02-23T05:47:56;1.35;;;0.77;;
62616;SDS011;76316;51.190;6.808;2024-02-23T05:50:22;1.08;;;0.63;;
62616;SDS011;76316;51.190;6.808;2024-02-23T05:52:47;1.45;;;1.00;;
62616;SDS011;76316;51.190;6.808;2024-02-23T05:55:13;1.67;;;0.70;;
62616;SDS011;76316;51.190;6.808;2024-02-23T05:57:38;1.05;;;0.45;;
62616;SDS011;76316;51.190;6.808;2024-02-23T06:00:04;2.00;;;0.90;;
62616;SDS011;76316;51.190;6.808;2024-02-23T06:02:30;0.88;;;0.65;;
62616;SDS011;76316;51.190;6.808;2024-02-23T06:04:56;6.22;;;1.10;;
62616;SDS011;76316;51.190;6.808;2024-02-23T06:07:21;1.33;;;0.65;;
62616;SDS011;76316;51.190;6.808;2024-02-23T06:09:53;1.48;;;0.80;;
62616;SDS011;76316;51.190;6.808;2024-02-23T06:12:22;2.08;;;1.05;;
62616;SDS011;76316;51.190;6.808;2024-02-23T06:14:48;2.90;;;0.88;;
62616;SDS011;76316;51.190;6.808;2024-02-23T06:17:14;3.63;;;1.02;;
62616;SDS011;76316;51.190;6.808;2024-02-23T06:19:39;2.30;;;0.70;;
62616;SDS011;76316;51.190;6.808;2024-02-23T06:22:04;2.33;;;0.90;;
62616;SDS011;76316;51.190;6.808;2024-02-23T06:24:30;2.30;;;0.90;;
62616;SDS011;76316;51.190;6.808;2024-02-23T06:26:55;2.03;;;0.82;;
62616;SDS011;76316;51.190;6.808;2024-02-23T06:29:22;1.48;;;0.80;;
62616;SDS011;76316;51.190;6.808;2024-02-23T06:31:48;1.95;;;0.85;;
62616;SDS011;76316;51.190;6.808;2024-02-23T06:34:14;2.72;;;0.80;;
62616;SDS011;76316;51.190;6.808;2024-02-23T06:36:41;2.47;;;1.20;;
62616;SDS011;76316;51.190;6.808;2024-02-23T06:39:07;0.80;;;0.70;;
62616;SDS011;76316;51.190;6.808;2024-02-23T06:41:33;2.70;;;0.95;;
62616;SDS011;76316;51.190;6.808;2024-02-23T06:43:59;2.63;;;0.75;;
62616;SDS011;76316;51.190;6.808;2024-02-23T06:46:25;1.00;;;0.60;;
62616;SDS011;76316;51.190;6.808;2024-02-23T06:48:50;1.85;;;0.80;;
62616;SDS011;76316;51.190;6.808;2024-02-23T06:51:15;5.03;;;1.00;;
62616;SDS011;76316;51.190;6.808;2024-02-23T06:53:41;3.65;;;1.00;;
62616;SDS011;76316;51.190;6.808;2024-02-23T06:56:07;1.90;;;0.90;;
62616;SDS011;76316;51.190;6.808;2024-02-23T06:58:32;1.25;;;0.60;;
62616;SDS011;76316;51.190;6.808;2024-02-23T07:00:58;1.50;;;0.82;;
62616;SDS011;76316;51.190;6.808;2024-02-23T07:03:23;1.08;;;0.73;;
62616;SDS011;76316;51.190;6.808;2024-02-23T07:05:48;1.45;;;0.88;;
62616;SDS011;76316;51.190;6.808;2024-02-23T07:08:15;3.63;;;0.80;;
62616;SDS011;76316;51.190;6.808;2024-02-23T07:10:40;2.28;;;0.88;;
62616;SDS011;76316;51.190;6.808;2024-02-23T07:13:06;4.97;;;1.00;;
62616;SDS011;76316;51.190;6.808;2024-02-23T07:15:32;6.18;;;0.93;;
62616;SDS011;76316;51.190;6.808;2024-02-23T07:17:58;3.53;;;0.82;;
62616;SDS011;76316;51.190;6.808;2024-02-23T07:20:24;3.15;;;0.88;;
62616;SDS011;76316;51.190;6.808;2024-02-23T07:22:49;2.53;;;1.02;;
62616;SDS011;76316;51.190;6.808;2024-02-23T07:25:16;1.80;;;0.95;;
62616;SDS011;76316;51.190;6.808;2024-02-23T07:27:42;2.63;;;0.90;;
62616;SDS011;76316;51.190;6.808;2024-02-23T07:30:09;5.72;;;0.80;;
62616;SDS011;76316;51.190;6.808;2024-02-23T07:32:35;14.00;;;1.48;;
62616;SDS011;76316;51.190;6.808;2024-02-23T07:35:00;5.95;;;0.90;;
62616;SDS011;76316;51.190;6.808;2024-02-23T07:37:29;2.70;;;0.80;;
62616;SDS011;76316;51.190;6.808;2024-02-23T07:39:55;2.78;;;0.93;;
62616;SDS011;76316;51.190;6.808;2024-02-23T07:42:20;1.85;;;0.93;;
62616;SDS011;76316;51.190;6.808;2024-02-23T07:44:46;1.98;;;0.80;;
62616;SDS011;76316;51.190;6.808;2024-02-23T07:47:11;2.05;;;1.10;;
62616;SDS011;76316;51.190;6.808;2024-02-23T07:49:37;1.55;;;0.88;;
62616;SDS011;76316;51.190;6.808;2024-02-23T07:52:05;5.55;;;0.88;;
62616;SDS011;76316;51.190;6.808;2024-02-23T07:54:31;3.65;;;1.40;;
62616;SDS011;76316;51.190;6.808;2024-02-23T07:56:57;2.30;;;1.00;;
62616;SDS011;76316;51.190;6.808;2024-02-23T07:59:23;1.15;;;0.85;;
62616;SDS011;76316;51.190;6.808;2024-02-23T08:01:49;5.70;;;1.10;;
62616;SDS011;76316;51.190;6.808;2024-02-23T08:04:15;3.55;;;1.10;;
62616;SDS011;76316;51.190;6.808;2024-02-23T08:06:41;1.73;;;0.82;;
62616;SDS011;76316;51.190;6.808;2024-02-23T08:09:07;1.35;;;0.60;;
62616;SDS011;76316;51.190;6.808;2024-02-23T08:11:34;3.53;;;0.90;;
62616;SDS011;76316;51.190;6.808;2024-02-23T08:13:59;3.85;;;1.17;;
62616;SDS011;76316;51.190;6.808;2024-02-23T08:16:26;3.08;;;0.90;;
62616;SDS011;76316;51.190;6.808;2024-02-23T08:18:51;3.20;;;0.90;;
62616;SDS011;76316;51.190;6.808;2024-02-23T08:21:17;4.60;;;1.10;;
62616;SDS011;76316;51.190;6.808;2024-02-23T08:23:43;4.70;;;1.00;;
62616;SDS011;76316;51.190;6.808;2024-02-23T08:26:09;6.35;;;1.02;;
62616;SDS011;76316;51.190;6.808;2024-02-23T08:28:35;4.60;;;1.00;;
62616;SDS011;76316;51.190;6.808;2024-02-23T08:31:00;6.85;;;1.25;;
62616;SDS011;76316;51.190;6.808;2024-02-23T08:33:26;8.70;;;1.10;;
62616;SDS011;76316;51.190;6.808;2024-02-23T08:35:51;1.75;;;0.85;;
62616;SDS011;76316;51.190;6.808;2024-02-23T08:38:17;2.53;;;1.02;;
62616;SDS011;76316;51.190;6.808;2024-02-23T08:40:43;5.25;;;1.10;;
62616;SDS011;76316;51.190;6.808;2024-02-23T08:43:10;6.32;;;1.17;;
62616;SDS011;76316;51.190;6.808;2024-02-23T08:45:35;3.05;;;1.10;;
62616;SDS011;76316;51.190;6.808;2024-02-23T08:48:01;5.43;;;0.73;;
62616;SDS011;76316;51.190;6.808;2024-02-23T08:50:28;1.63;;;0.90;;
62616;SDS011;76316;51.190;6.808;2024-02-23T08:52:54;6.38;;;1.20;;
62616;SDS011;76316;51.190;6.808;2024-02-23T08:55:19;5.30;;;1.02;;
62616;SDS011;76316;51.190;6.808;2024-02-23T08:57:46;6.03;;;1.13;;
62616;SDS011;76316;51.190;6.808;2024-02-23T09:00:12;5.70;;;1.08;;
62616;SDS011;76316;51.190;6.808;2024-02-23T09:02:39;6.80;;;1.10;;
62616;SDS011;76316;51.190;6.808;2024-02-23T09:05:06;6.20;;;1.10;;
62616;SDS011;76316;51.190;6.808;2024-02-23T09:07:32;1.92;;;0.90;;
62616;SDS011;76316;51.190;6.808;2024-02-23T09:09:57;1.45;;;0.93;;
62616;SDS011;76316;51.190;6.808;2024-02-23T09:12:23;2.60;;;1.20;;
62616;SDS011;76316;51.190;6.808;2024-02-23T09:14:48;7.03;;;1.33;;
62616;SDS011;76316;51.190;6.808;2024-02-23T09:17:14;3.83;;;1.10;;
62616;SDS011;76316;51.190;6.808;2024-02-23T09:19:40;5.38;;;0.90;;
62616;SDS011;76316;51.190;6.808;2024-02-23T09:22:05;13.95;;;1.15;;
62616;SDS011;76316;51.190;6.808;2024-02-23T09:24:31;2.88;;;1.02;;
62616;SDS011;76316;51.190;6.808;2024-02-23T09:26:56;8.80;;;1.10;;
62616;SDS011;76316;51.190;6.808;2024-02-23T09:29:21;7.95;;;0.90;;
62616;SDS011;76316;51.190;6.808;2024-02-23T09:31:47;12.45;;;0.95;;
62616;SDS011;76316;51.190;6.808;2024-02-23T09:34:13;3.80;;;0.80;;
62616;SDS011;76316;51.190;6.808;2024-02-23T09:36:38;6.20;;;0.90;;
62616;SDS011;76316;51.190;6.808;2024-02-23T09:39:04;4.88;;;0.98;;
62616;SDS011;76316;51.190;6.808;2024-02-23T09:41:29;5.70;;;1.00;;
62616;SDS011;76316;51.190;6.808;2024-02-23T09:43:58;8.10;;;0.95;;
62616;SDS011;76316;51.190;6.808;2024-02-23T09:46:24;10.75;;;0.90;;
62616;SDS011;76316;51.190;6.808;2024-02-23T09:48:51;13.77;;;1.00;;
62616;SDS011;76316;51.190;6.808;2024-02-23T09:51:18;13.50;;;0.90;;
62616;SDS011;76316;51.190;6.808;2024-02-23T09:53:48;4.60;;;0.90;;
62616;SDS011;76316;51.190;6.808;2024-02-23T09:56:16;9.48;;;1.52;;
62616;SDS011;76316;51.190;6.808;2024-02-23T09:58:42;8.13;;;2.05;;
62616;SDS011;76316;51.190;6.808;2024-02-23T10:01:09;10.13;;;3.00;;
62616;SDS011;76316;51.190;6.808;2024-02-23T10:03:36;11.57;;;3.45;;
62616;SDS011;76316;51.190;6.808;2024-02-23T10:06:04;28.65;;;7.20;;
62616;SDS011;76316;51.190;6.808;2024-02-23T10:08:30;40.60;;;13.10;;
62616;SDS011;76316;51.190;6.808;2024-02-23T10:10:56;65.00;;;18.27;;
62616;SDS011;76316;51.190;6.808;2024-02-23T10:13:22;62.70;;;17.67;;
62616;SDS011;76316;51.190;6.808;2024-02-23T10:15:49;59.53;;;16.90;;
62616;SDS011;76316;51.190;6.808;2024-02-23T10:18:16;69.13;;;21.08;;
62616;SDS011;76316;51.190;6.808;2024-02-23T10:20:42;65.60;;;20.63;;
62616;SDS011;76316;51.190;6.808;2024-02-23T10:23:08;90.07;;;26.30;;
62616;SDS011;76316;51.190;6.808;2024-02-23T10:25:35;78.97;;;26.40;;
62616;SDS011;76316;51.190;6.808;2024-02-23T10:28:02;77.65;;;23.20;;
62616;SDS011;76316;51.190;6.808;2024-02-23T10:30:28;68.32;;;21.67;;
62616;SDS011;76316;51.190;6.808;2024-02-23T10:32:58;63.53;;;20.30;;
62616;SDS011;76316;51.190;6.808;2024-02-23T10:35:24;57.53;;;18.70;;
62616;SDS011;76316;51.190;6.808;2024-02-23T10:37:52;50.42;;;17.50;;
62616;SDS011;76316;51.190;6.808;2024-02-23T10:40:20;45.08;;;14.82;;
62616;SDS011;76316;51.190;6.808;2024-02-23T10:42:48;42.58;;;14.60;;
62616;SDS011;76316;51.190;6.808;2024-02-23T10:45:19;42.67;;;14.23;;
62616;SDS011;76316;51.190;6.808;2024-02-23T10:47:49;41.50;;;14.40;;
62616;SDS011;76316;51.190;6.808;2024-02-23T10:50:16;33.17;;;11.57;;
62616;SDS011;76316;51.190;6.808;2024-02-23T10:52:44;38.97;;;12.27;;
62616;SDS011;76316;51.190;6.808;2024-02-23T10:55:11;41.05;;;12.00;;
62616;SDS011;76316;51.190;6.808;2024-02-23T10:57:39;32.67;;;10.55;;
62616;SDS011;76316;51.190;6.808;2024-02-23T11:00:04;32.08;;;12.32;;
62616;SDS011;76316;51.190;6.808;2024-02-23T11:02:36;32.03;;;11.10;;
62616;SDS011;76316;51.190;6.808;2024-02-23T11:05:10;27.08;;;8.70;;
62616;SDS011;76316;51.190;6.808;2024-02-23T11:07:38;27.08;;;7.95;;
62616;SDS011;76316;51.190;6.808;2024-02-23T11:10:05;24.15;;;9.88;;
62616;SDS011;76316;51.190;6.808;2024-02-23T11:12:31;22.20;;;8.07;;
62616;SDS011;76316;51.190;6.808;2024-02-23T11:14:57;29.33;;;7.40;;
62616;SDS011;76316;51.190;6.808;2024-02-23T11:17:31;28.08;;;7.80;;
62616;SDS011;76316;51.190;6.808;2024-02-23T11:20:03;23.40;;;7.10;;
62616;SDS011;76316;51.190;6.808;2024-02-23T11:22:30;20.33;;;6.43;;
62616;SDS011;76316;51.190;6.808;2024-02-23T11:25:01;18.42;;;6.45;;
62616;SDS011;76316;51.190;6.808;2024-02-23T11:27:30;16.27;;;6.22;;
62616;SDS011;76316;51.190;6.808;2024-02-23T11:30:04;17.67;;;6.68;;
62616;SDS011;76316;51.190;6.808;2024-02-23T11:32:40;21.08;;;6.00;;
62616;SDS011;76316;51.190;6.808;2024-02-23T11:35:19;19.08;;;5.95;;
62616;SDS011;76316;51.190;6.808;2024-02-23T11:37:48;17.48;;;5.15;;
62616;SDS011;76316;51.190;6.808;2024-02-23T11:40:23;20.10;;;5.75;;
62616;SDS011;76316;51.190;6.808;2024-02-23T11:42:50;23.90;;;6.00;;
62616;SDS011;76316;51.190;6.808;2024-02-23T11:45:16;18.85;;;5.32;;
62616;SDS011;76316;51.190;6.808;2024-02-23T11:47:42;20.60;;;5.65;;
62616;SDS011;76316;51.190;6.808;2024-02-23T11:50:08;11.95;;;4.75;;
62616;SDS011;76316;51.190;6.808;2024-02-23T11:52:36;13.13;;;5.25;;
62616;SDS011;76316;51.190;6.808;2024-02-23T11:55:05;10.57;;;4.65;;
62616;SDS011;76316;51.190;6.808;2024-02-23T11:57:33;17.08;;;5.05;;
62616;SDS011;76316;51.190;6.808;2024-02-23T12:00:01;8.82;;;4.40;;
62616;SDS011;76316;51.190;6.808;2024-02-23T12:02:28;13.45;;;4.47;;
62616;SDS011;76316;51.190;6.808;2024-02-23T12:04:53;17.15;;;4.45;;
62616;SDS011;76316;51.190;6.808;2024-02-23T12:07:19;10.55;;;4.15;;
62616;SDS011;76316;51.190;6.808;2024-02-23T12:09:46;15.65;;;4.65;;
62616;SDS011;76316;51.190;6.808;2024-02-23T12:12:12;12.60;;;4.65;;
62616;SDS011;76316;51.190;6.808;2024-02-23T12:14:39;11.13;;;4.38;;
62616;SDS011;76316;51.190;6.808;2024-02-23T12:17:05;16.27;;;4.18;;
62616;SDS011;76316;51.190;6.808;2024-02-23T12:19:37;17.73;;;4.35;;
62616;SDS011;76316;51.190;6.808;2024-02-23T12:22:04;12.25;;;4.03;;
62616;SDS011;76316;51.190;6.808;2024-02-23T12:24:30;11.18;;;3.80;;
62616;SDS011;76316;51.190;6.808;2024-02-23T12:26:55;17.92;;;3.80;;
62616;SDS011;76316;51.190;6.808;2024-02-23T12:29:21;10.13;;;3.97;;
62616;SDS011;76316;51.190;6.808;2024-02-23T12:31:47;17.52;;;3.70;;
62616;SDS011;76316;51.190;6.808;2024-02-23T12:34:13;9.82;;;3.80;;
62616;SDS011;76316;51.190;6.808;2024-02-23T12:36:39;21.35;;;3.80;;
62616;SDS011;76316;51.190;6.808;2024-02-23T12:39:05;12.20;;;4.00;;
62616;SDS011;76316;51.190;6.808;2024-02-23T12:41:30;17.00;;;3.67;;
62616;SDS011;76316;51.190;6.808;2024-02-23T12:43:57;13.30;;;3.67;;
62616;SDS011;76316;51.190;6.808;2024-02-23T12:46:22;11.15;;;3.72;;
62616;SDS011;76316;51.190;6.808;2024-02-23T12:48:49;13.20;;;4.15;;
62616;SDS011;76316;51.190;6.808;2024-02-23T12:51:15;14.38;;;3.35;;
62616;SDS011;76316;51.190;6.808;2024-02-23T12:53:41;8.60;;;3.17;;
62616;SDS011;76316;51.190;6.808;2024-02-23T12:56:11;11.57;;;3.55;;
62616;SDS011;76316;51.190;6.808;2024-02-23T12:58:39;11.02;;;3.22;;
62616;SDS011;76316;51.190;6.808;2024-02-23T13:01:09;10.95;;;3.72;;
62616;SDS011;76316;51.190;6.808;2024-02-23T13:03:36;8.43;;;3.50;;
62616;SDS011;76316;51.190;6.808;2024-02-23T13:06:05;11.97;;;3.77;;
62616;SDS011;76316;51.190;6.808;2024-02-23T13:08:31;11.05;;;3.80;;
62616;SDS011;76316;51.190;6.808;2024-02-23T13:10:57;10.35;;;3.10;;
62616;SDS011;76316;51.190;6.808;2024-02-23T13:13:22;7.95;;;3.13;;
62616;SDS011;76316;51.190;6.808;2024-02-23T13:15:49;8.13;;;2.90;;
62616;SDS011;76316;51.190;6.808;2024-02-23T13:18:16;10.30;;;2.65;;
62616;SDS011;76316;51.190;6.808;2024-02-23T13:20:41;9.23;;;2.55;;
62616;SDS011;76316;51.190;6.808;2024-02-23T13:23:07;5.97;;;2.42;;
62616;SDS011;76316;51.190;6.808;2024-02-23T13:25:34;7.55;;;2.40;;
62616;SDS011;76316;51.190;6.808;2024-02-23T13:28:01;8.02;;;3.38;;
62616;SDS011;76316;51.190;6.808;2024-02-23T13:30:27;8.40;;;5.18;;
62616;SDS011;76316;51.190;6.808;2024-02-23T13:32:52;14.18;;;6.15;;
62616;SDS011;76316;51.190;6.808;2024-02-23T13:35:18;12.85;;;6.80;;
62616;SDS011;76316;51.190;6.808;2024-02-23T13:37:44;13.02;;;6.15;;
62616;SDS011;76316;51.190;6.808;2024-02-23T13:40:10;13.93;;;7.10;;
62616;SDS011;76316;51.190;6.808;2024-02-23T13:42:39;15.27;;;7.63;;
62616;SDS011;76316;51.190;6.808;2024-02-23T13:45:06;16.02;;;7.72;;
62616;SDS011;76316;51.190;6.808;2024-02-23T13:47:34;14.65;;;6.97;;
62616;SDS011;76316;51.190;6.808;2024-02-23T13:50:03;17.30;;;8.60;;
62616;SDS011;76316;51.190;6.808;2024-02-23T13:52:30;19.10;;;8.80;;
62616;SDS011;76316;51.190;6.808;2024-02-23T13:54:56;20.05;;;10.63;;
62616;SDS011;76316;51.190;6.808;2024-02-23T13:57:22;20.08;;;8.63;;
62616;SDS011;76316;51.190;6.808;2024-02-23T13:59:47;18.00;;;9.07;;
62616;SDS011;76316;51.190;6.808;2024-02-23T14:02:13;16.40;;;8.63;;
62616;SDS011;76316;51.190;6.808;2024-02-23T14:04:39;17.45;;;8.77;;
62616;SDS011;76316;51.190;6.808;2024-02-23T14:07:04;16.13;;;8.27;;
62616;SDS011;76316;51.190;6.808;2024-02-23T14:09:32;13.77;;;8.30;;
62616;SDS011;76316;51.190;6.808;2024-02-23T14:11:57;23.95;;;8.77;;
62616;SDS011;76316;51.190;6.808;2024-02-23T14:14:22;14.02;;;8.15;;
62616;SDS011;76316;51.190;6.808;2024-02-23T14:16:49;18.33;;;8.60;;
62616;SDS011;76316;51.190;6.808;2024-02-23T14:19:15;14.68;;;7.85;;
62616;SDS011;76316;51.190;6.808;2024-02-23T14:21:40;14.68;;;7.78;;
62616;SDS011;76316;51.190;6.808;2024-02-23T14:24:06;14.43;;;8.23;;
62616;SDS011;76316;51.190;6.808;2024-02-23T14:26:31;19.52;;;8.55;;
62616;SDS011;76316;51.190;6.808;2024-02-23T14:28:58;24.23;;;7.43;;
62616;SDS011;76316;51.190;6.808;2024-02-23T14:31:24;19.45;;;8.05;;
62616;SDS011;76316;51.190;6.808;2024-02-23T14:33:50;14.75;;;7.45;;
62616;SDS011;76316;51.190;6.808;2024-02-23T14:36:17;17.90;;;7.72;;
62616;SDS011;76316;51.190;6.808;2024-02-23T14:38:43;16.15;;;7.95;;